Time;durP1;ratioP1;P1;durP2;ratioP2;P2;SDS_P1;SDS_P2;PMS_P1;PMS_P2;Temp;Humidity;BMP_temperature;BMP_pressure;BME280_temperature;BME280_humidity;BME280_pressure;Samples;Min_cycle;Max_cycle;Signal;HPM_P1;HPM_P2
2023/06/13 00:01:03;;;;;;;5.55;4.45;;;20.80;68.20;;;;;;5057329;28;20037;-57
2023/06/13 00:03:29;;;;;;;6.70;4.75;;;20.70;68.90;;;;;;5060002;28;20059;-57
2023/06/13 00:06:01;;;;;;;7.03;4.25;;;20.80;66.00;;;;;;5053334;28;20029;-56
2023/06/13 00:08:31;;;;;;;6.47;4.07;;;20.80;69.10;;;;;;5057338;28;20036;-57
2023/06/13 00:10:57;;;;;;;6.57;4.07;;;20.60;69.80;;;;;;5053437;28;20460;-56
2023/06/13 00:13:24;;;;;;;6.80;4.10;;;20.60;68.20;;;;;;5050591;28;20075;-56
2023/06/13 00:15:53;;;;;;;5.28;4.28;;;20.50;68.30;;;;;;5050154;28;20036;-56
2023/06/13 00:18:19;;;;;;;6.32;4.10;;;20.40;71.70;;;;;;5050361;28;20044;-56
2023/06/13 00:20:50;;;;;;;6.32;4.57;;;20.20;1.00;;;;;;5057137;28;20028;-56
2023/06/13 00:23:16;;;;;;;6.70;4.05;;;20.10;99.90;;;;;;5048783;28;20037;-56
2023/06/13 00:25:42;;;;;;;5.32;4.00;;;20.10;1.00;;;;;;5054951;28;20510;-56
2023/06/13 00:28:08;;;;;;;7.68;4.38;;;20.00;1.00;;;;;;5054384;28;20127;-57
2023/06/13 00:30:33;;;;;;;8.85;4.40;;;19.90;1.00;;;;;;5056345;28;20036;-56
2023/06/13 00:32:59;;;;;;;7.75;4.50;;;19.90;1.00;;;;;;5060063;28;20032;-56
2023/06/13 00:35:25;;;;;;;8.80;4.22;;;19.90;99.90;;;;;;5051987;28;20089;-56
2023/06/13 00:37:54;;;;;;;7.18;4.25;;;20.00;99.90;;;;;;5054098;28;20036;-56
2023/06/13 00:40:20;;;;;;;5.47;4.28;;;20.00;1.00;;;;;;5055917;28;20538;-57
2023/06/13 00:42:46;;;;;;;6.53;4.20;;;19.70;1.00;;;;;;5058416;28;20475;-57
2023/06/13 00:45:20;;;;;;;5.55;4.57;;;19.50;99.90;;;;;;5055163;28;20072;-56
2023/06/13 00:47:51;;;;;;;5.70;4.15;;;19.20;99.90;;;;;;5054940;28;20244;-56
2023/06/13 00:50:18;;;;;;;7.15;4.45;;;19.20;99.90;;;;;;5055098;28;20033;-57
2023/06/13 00:52:44;;;;;;;6.43;4.10;;;19.10;99.90;;;;;;5056278;28;20025;-56
2023/06/13 00:55:10;;;;;;;5.72;4.10;;;18.90;99.90;;;;;;5054449;28;20033;-56
2023/06/13 00:57:38;;;;;;;5.78;4.47;;;18.80;1.00;;;;;;5050526;28;20734;-56
2023/06/13 01:00:05;;;;;;;6.15;3.80;;;18.80;55.40;;;;;;5049654;28;20159;-56
2023/06/13 01:02:33;;;;;;;5.00;3.80;;;18.70;99.90;;;;;;5052179;28;20033;-56
2023/06/13 01:05:02;;;;;;;7.50;4.60;;;18.60;99.90;;;;;;5049644;28;20035;-55
2023/06/13 01:07:34;;;;;;;5.53;4.30;;;18.60;99.90;;;;;;5052690;28;20028;-56
2023/06/13 01:10:00;;;;;;;5.45;4.65;;;18.50;99.90;;;;;;5052785;28;20745;-56
2023/06/13 01:12:35;;;;;;;7.45;4.20;;;18.30;1.00;;;;;;5058440;28;20484;-56
2023/06/13 01:15:07;;;;;;;7.95;4.80;;;18.40;1.00;;;;;;5057664;28;20064;-56
2023/06/13 01:17:41;;;;;;;6.25;4.25;;;18.20;99.90;;;;;;5052876;28;20397;-56
2023/06/13 01:20:10;;;;;;;5.82;4.47;;;18.20;1.00;;;;;;5050751;28;20063;-56
2023/06/13 01:23:06;;;;;;;9.85;4.57;;;18.20;99.90;;;;;;5052913;28;20449;-56
2023/06/13 01:25:52;;;;;;;6.93;4.60;;;18.50;99.90;;;;;;5034272;28;20788;-56
2023/06/13 01:28:20;;;;;;;10.15;4.38;;;18.70;99.90;;;;;;5053752;28;20044;-56
2023/06/13 01:30:47;;;;;;;6.60;4.78;;;18.80;99.90;;;;;;5053340;28;20029;-56
2023/06/13 01:33:12;;;;;;;6.28;4.50;;;18.50;99.90;;;;;;5053129;28;20040;-56
2023/06/13 01:35:38;;;;;;;6.72;4.70;;;18.50;1.00;;;;;;5052056;28;20071;-56
2023/06/13 01:38:05;;;;;;;6.55;4.40;;;18.10;99.90;;;;;;5053125;28;20033;-56
2023/06/13 01:40:31;;;;;;;9.90;4.53;;;18.00;99.90;;;;;;5055158;28;20123;-56
2023/06/13 01:42:56;;;;;;;6.97;4.63;;;18.00;1.00;;;;;;5049662;28;20825;-56
2023/06/13 01:45:23;;;;;;;8.82;4.53;;;18.00;99.90;;;;;;5050578;28;20129;-56
2023/06/13 01:48:10;;;;;;;6.78;4.47;;;17.70;99.90;;;;;;5057001;28;20029;-56
2023/06/13 01:50:55;;;;;;;6.88;4.50;;;17.60;1.00;;;;;;5059284;28;20059;-56
2023/06/13 01:53:58;;;;;;;5.47;4.50;;;17.70;99.90;;;;;;5055402;28;20044;-56
2023/06/13 01:56:29;;;;;;;6.20;4.43;;;17.60;99.90;;;;;;5056608;28;20043;-55
2023/06/13 01:58:57;;;;;;;7.40;5.15;;;17.40;99.90;;;;;;5058061;28;20052;-56
2023/06/13 02:01:26;;;;;;;6.28;4.75;;;17.30;99.90;;;;;;5056405;28;20529;-56
2023/06/13 02:03:52;;;;;;;5.40;4.55;;;17.40;2.70;;;;;;5053493;28;20037;-56
2023/06/13 02:06:18;;;;;;;8.77;4.80;;;17.30;1.00;;;;;;5059201;28;20036;-56
2023/06/13 02:08:44;;;;;;;7.32;4.85;;;17.20;50.40;;;;;;5059230;28;20043;-56
2023/06/13 02:11:10;;;;;;;5.57;4.90;;;17.30;99.90;;;;;;5055608;28;20241;-56
2023/06/13 02:13:37;;;;;;;7.82;4.90;;;17.20;1.00;;;;;;5058430;28;20493;-57
2023/06/13 02:16:03;;;;;;;6.82;5.18;;;17.10;1.00;;;;;;5059788;28;20562;-56
2023/06/13 02:18:28;;;;;;;6.60;4.82;;;16.90;99.90;;;;;;5061233;28;20068;-56
2023/06/13 02:20:54;;;;;;;10.55;4.55;;;16.90;99.90;;;;;;5059960;28;20123;-56
2023/06/13 02:23:20;;;;;;;5.70;4.30;;;16.80;53.00;;;;;;5059242;28;20086;-56
2023/06/13 02:25:47;;;;;;;5.43;4.90;;;16.90;1.00;;;;;;5062576;28;20101;-56
2023/06/13 02:28:13;;;;;;;6.53;4.80;;;16.80;99.90;;;;;;5056043;28;20528;-56
2023/06/13 02:30:38;;;;;;;5.63;4.90;;;16.70;1.00;;;;;;5058580;28;20036;-56
2023/06/13 02:33:04;;;;;;;8.00;4.93;;;16.60;99.90;;;;;;5055544;28;20025;-56
2023/06/13 02:35:30;;;;;;;7.28;4.90;;;16.70;99.90;;;;;;5060161;28;20040;-56
2023/06/13 02:37:56;;;;;;;8.07;4.82;;;16.70;99.90;;;;;;5058554;28;20029;-56
2023/06/13 02:40:22;;;;;;;7.32;4.90;;;16.60;61.10;;;;;;5058260;28;20036;-56
2023/06/13 02:42:49;;;;;;;7.38;5.10;;;16.50;99.90;;;;;;5063369;28;20044;-56
2023/06/13 02:45:16;;;;;;;7.30;4.80;;;16.50;99.90;;;;;;5055729;28;20838;-56
2023/06/13 02:47:42;;;;;;;7.10;4.97;;;16.40;99.90;;;;;;5061909;28;20032;-56
2023/06/13 02:50:08;;;;;;;7.78;5.03;;;16.50;99.90;;;;;;5059016;28;20036;-56
2023/06/13 02:52:33;;;;;;;10.70;5.10;;;16.50;99.90;;;;;;5054273;28;20036;-56
2023/06/13 02:54:59;;;;;;;11.35;5.22;;;16.30;1.00;;;;;;5054106;28;20123;-56
2023/06/13 02:57:25;;;;;;;6.15;5.10;;;16.50;99.90;;;;;;5051177;28;20413;-56
2023/06/13 02:59:51;;;;;;;8.60;5.13;;;16.20;99.90;;;;;;5052418;28;20121;-56
2023/06/13 03:02:20;;;;;;;7.65;5.20;;;16.20;99.90;;;;;;5057469;28;20509;-56
2023/06/13 03:04:47;;;;;;;7.05;5.05;;;16.20;99.90;;;;;;5049627;28;20032;-56
2023/06/13 03:07:16;;;;;;;7.45;5.93;;;16.30;99.90;;;;;;5048866;28;20190;-58
2023/06/13 03:09:42;;;;;;;8.50;5.00;;;16.10;99.90;;;;;;5059101;28;20044;-56
2023/06/13 03:12:08;;;;;;;8.38;5.18;;;16.10;99.90;;;;;;5052400;28;20420;-56
2023/06/13 03:14:34;;;;;;;6.57;5.00;;;16.20;99.90;;;;;;5059722;28;20036;-56
2023/06/13 03:16:59;;;;;;;8.13;5.00;;;16.00;99.90;;;;;;5058218;28;20138;-56
2023/06/13 03:19:25;;;;;;;7.80;4.65;;;16.00;99.90;;;;;;5055083;28;20148;-56
2023/06/13 03:21:51;;;;;;;7.53;5.10;;;16.00;99.90;;;;;;5051484;28;20037;-56
2023/06/13 03:24:17;;;;;;;9.55;5.05;;;15.90;99.90;;;;;;5055750;28;20085;-56
2023/06/13 03:26:43;;;;;;;8.43;4.85;;;15.90;99.90;;;;;;5053954;28;20041;-56
2023/06/13 03:29:09;;;;;;;10.75;5.40;;;16.00;99.90;;;;;;5054935;28;20044;-56
2023/06/13 03:31:35;;;;;;;7.82;5.40;;;15.80;99.90;;;;;;5048894;28;20033;-56
2023/06/13 03:34:00;;;;;;;13.55;4.95;;;15.90;99.90;;;;;;5056978;28;20843;-57
2023/06/13 03:36:26;;;;;;;7.97;5.32;;;15.80;99.90;;;;;;5060909;28;20090;-56
2023/06/13 03:38:52;;;;;;;8.73;5.00;;;15.90;99.90;;;;;;5052910;28;20044;-56
2023/06/13 03:41:18;;;;;;;9.20;5.70;;;15.90;99.90;;;;;;5052393;28;20041;-56
2023/06/13 03:43:43;;;;;;;11.88;5.75;;;15.80;99.90;;;;;;5057039;28;20124;-56
2023/06/13 03:46:09;;;;;;;8.40;5.93;;;15.80;99.90;;;;;;5050044;28;20396;-57
2023/06/13 03:48:34;;;;;;;7.07;5.15;;;15.80;99.90;;;;;;5056125;28;20124;-56
2023/06/13 03:51:00;;;;;;;8.32;5.70;;;15.70;99.90;;;;;;5054240;28;20123;-56
2023/06/13 03:53:26;;;;;;;8.50;5.70;;;15.80;99.90;;;;;;5053904;28;20120;-56
2023/06/13 03:55:52;;;;;;;11.10;5.70;;;15.80;99.90;;;;;;5052248;28;20048;-56
2023/06/13 03:58:18;;;;;;;11.98;5.88;;;15.70;99.90;;;;;;5055680;28;20131;-56
2023/06/13 04:00:44;;;;;;;8.73;5.55;;;15.70;99.90;;;;;;5055719;28;20035;-56
2023/06/13 04:03:10;;;;;;;10.02;5.53;;;15.70;99.90;;;;;;5056277;28;20033;-56
2023/06/13 04:05:36;;;;;;;10.70;5.60;;;15.80;99.90;;;;;;5057585;28;21086;-56
2023/06/13 04:08:05;;;;;;;7.05;5.90;;;15.70;99.90;;;;;;5051098;28;20146;-55
2023/06/13 04:10:30;;;;;;;9.68;5.50;;;15.80;99.90;;;;;;5061716;28;20032;-56
2023/06/13 04:12:56;;;;;;;6.82;5.00;;;15.70;99.90;;;;;;5056053;28;20032;-56
2023/06/13 04:15:22;;;;;;;7.57;5.40;;;16.00;99.90;;;;;;5056545;28;20684;-56
2023/06/13 04:17:48;;;;;;;8.23;5.18;;;16.40;99.90;;;;;;5056424;28;20036;-56
2023/06/13 04:20:17;;;;;;;7.47;5.18;;;16.60;99.90;;;;;;5050562;28;20068;-56
2023/06/13 04:22:44;;;;;;;8.35;5.05;;;16.80;99.90;;;;;;5054707;28;20232;-56
2023/06/13 04:25:10;;;;;;;7.05;4.80;;;16.80;99.90;;;;;;5049148;28;20025;-55
2023/06/13 04:27:36;;;;;;;7.72;5.15;;;16.90;99.90;;;;;;5058472;28;20511;-56
2023/06/13 04:30:02;;;;;;;11.93;5.28;;;17.00;99.90;;;;;;5048547;28;20037;-55
2023/06/13 04:32:28;;;;;;;6.85;5.38;;;17.10;99.90;;;;;;5054423;28;20040;-56
2023/06/13 04:34:55;;;;;;;10.95;5.20;;;17.20;99.90;;;;;;5050109;28;20075;-56
2023/06/13 04:37:25;;;;;;;7.45;5.35;;;17.30;99.90;;;;;;5052113;28;20040;-56
2023/06/13 04:39:54;;;;;;;8.00;5.25;;;17.40;99.90;;;;;;5053925;28;20528;-56
2023/06/13 04:42:24;;;;;;;7.68;4.78;;;17.60;99.90;;;;;;5056190;28;20052;-56
2023/06/13 04:44:52;;;;;;;7.55;5.00;;;17.70;99.90;;;;;;5061273;28;20036;-56
2023/06/13 04:47:18;;;;;;;12.07;5.50;;;17.80;99.90;;;;;;5055204;28;20471;-56
2023/06/13 04:49:45;;;;;;;6.68;5.05;;;17.80;99.90;;;;;;5045280;28;20074;-55
2023/06/13 04:52:14;;;;;;;10.05;5.18;;;17.90;99.90;;;;;;5054798;28;20382;-56
2023/06/13 04:54:40;;;;;;;8.60;4.70;;;17.90;99.90;;;;;;5045260;28;20404;-56
2023/06/13 04:57:06;;;;;;;9.30;5.13;;;18.10;99.90;;;;;;5056667;28;20037;-56
2023/06/13 04:59:31;;;;;;;7.80;4.75;;;18.30;99.90;;;;;;5050748;28;20068;-56
2023/06/13 05:01:57;;;;;;;7.75;5.20;;;18.30;99.90;;;;;;5051872;28;20044;-56
2023/06/13 05:04:22;;;;;;;9.75;5.30;;;18.30;99.90;;;;;;5056870;28;20036;-56
2023/06/13 05:06:49;;;;;;;10.35;4.50;;;18.50;99.90;;;;;;5053980;28;20040;-56
2023/06/13 05:09:16;;;;;;;9.32;5.18;;;18.60;99.90;;;;;;5055383;28;20438;-56
2023/06/13 05:11:42;;;;;;;9.30;4.95;;;18.80;99.90;;;;;;5052094;28;20439;-56
2023/06/13 05:14:08;;;;;;;7.03;4.90;;;18.90;99.90;;;;;;5055800;28;20037;-56
2023/06/13 05:16:34;;;;;;;9.32;5.53;;;19.00;99.90;;;;;;5060765;28;20440;-56
2023/06/13 05:19:00;;;;;;;10.10;5.15;;;19.10;99.90;;;;;;5056758;28;20032;-56
2023/06/13 05:21:28;;;;;;;9.55;5.35;;;19.00;99.90;;;;;;5062958;28;20090;-56
2023/06/13 05:23:54;;;;;;;8.88;4.97;;;19.10;99.90;;;;;;5060917;28;20147;-56
2023/06/13 05:26:20;;;;;;;9.63;5.40;;;19.30;99.90;;;;;;5055744;28;20175;-56
2023/06/13 05:28:46;;;;;;;10.43;5.05;;;19.40;99.90;;;;;;5060500;28;20598;-56
2023/06/13 05:31:12;;;;;;;8.60;4.97;;;19.40;99.90;;;;;;5052715;28;20115;-56
2023/06/13 05:33:38;;;;;;;10.63;5.15;;;19.30;99.90;;;;;;5058838;28;20037;-56
2023/06/13 05:36:04;;;;;;;7.70;5.40;;;19.50;99.90;;;;;;5055249;28;20036;-55
2023/06/13 05:38:29;;;;;;;8.52;4.97;;;19.60;99.90;;;;;;5060481;28;20501;-56
2023/06/13 05:40:55;;;;;;;7.28;4.95;;;19.80;99.90;;;;;;5059692;28;20102;-56
2023/06/13 05:43:20;;;;;;;8.43;4.88;;;19.70;99.90;;;;;;5056699;28;20037;-56
2023/06/13 05:45:48;;;;;;;11.75;5.40;;;19.80;99.90;;;;;;5053301;28;20029;-55
2023/06/13 05:48:13;;;;;;;6.90;4.82;;;19.90;99.90;;;;;;5049309;28;20547;-55
2023/06/13 05:50:39;;;;;;;10.25;4.95;;;19.90;99.90;;;;;;5057801;28;20167;-56
2023/06/13 05:53:04;;;;;;;10.45;5.22;;;20.00;99.90;;;;;;5059129;28;20043;-55
2023/06/13 05:55:30;;;;;;;7.40;5.40;;;20.10;99.90;;;;;;5058399;28;20117;-55
2023/06/13 05:57:55;;;;;;;17.42;13.10;;;20.10;99.90;;;;;;5063822;28;20037;-55
2023/06/13 06:00:22;;;;;;;11.38;6.22;;;20.20;99.90;;;;;;5057614;28;20086;-56
2023/06/13 06:02:48;;;;;;;11.38;6.15;;;20.30;99.90;;;;;;5053060;28;20040;-56
2023/06/13 06:05:14;;;;;;;11.90;6.30;;;20.60;99.90;;;;;;5047258;28;20087;-56
2023/06/13 06:07:43;;;;;;;16.30;6.97;;;20.70;99.90;;;;;;5060632;28;20044;-56
2023/06/13 06:10:09;;;;;;;10.73;6.28;;;21.00;99.90;;;;;;5049063;28;20029;-56
2023/06/13 06:12:35;;;;;;;10.05;5.82;;;21.10;99.90;;;;;;5057299;28;20036;-56
2023/06/13 06:15:02;;;;;;;10.07;6.22;;;21.20;99.90;;;;;;5061713;28;20028;-56
2023/06/13 06:17:27;;;;;;;12.05;6.53;;;21.30;99.90;;;;;;5058515;28;20029;-56
2023/06/13 06:19:53;;;;;;;11.07;5.60;;;21.40;99.90;;;;;;5054336;28;20049;-56
2023/06/13 06:22:19;;;;;;;11.30;5.50;;;21.30;99.90;;;;;;5052450;28;20458;-56
2023/06/13 06:24:45;;;;;;;8.48;5.20;;;21.50;99.90;;;;;;5057426;28;20127;-56
2023/06/13 06:27:12;;;;;;;11.82;5.63;;;21.60;99.90;;;;;;5055357;28;20126;-56
2023/06/13 06:29:38;;;;;;;12.90;5.30;;;21.60;99.90;;;;;;5051069;28;20535;-56
2023/06/13 06:32:05;;;;;;;10.27;5.25;;;21.70;99.90;;;;;;5052277;28;20036;-56
2023/06/13 06:34:31;;;;;;;8.18;4.95;;;21.80;99.90;;;;;;5054344;28;20037;-56
2023/06/13 06:36:56;;;;;;;7.53;5.40;;;21.90;99.90;;;;;;5050177;28;20059;-56
2023/06/13 06:39:22;;;;;;;9.07;5.13;;;21.90;99.90;;;;;;5055708;28;20033;-56
2023/06/13 06:41:48;;;;;;;8.43;4.38;;;21.90;99.90;;;;;;5059397;28;20430;-56
2023/06/13 06:44:13;;;;;;;12.50;5.10;;;22.00;99.90;;;;;;5061488;28;20093;-57
2023/06/13 06:46:39;;;;;;;9.13;4.45;;;22.00;99.90;;;;;;5055267;28;20115;-56
2023/06/13 06:49:05;;;;;;;8.25;4.85;;;22.10;99.90;;;;;;5060992;28;20082;-56
2023/06/13 06:51:31;;;;;;;7.47;5.50;;;22.30;99.90;;;;;;5053160;28;20044;-57
2023/06/13 06:53:56;;;;;;;20.10;13.70;;;22.30;99.90;;;;;;5050539;28;20064;-55
2023/06/13 06:56:22;;;;;;;10.57;4.95;;;22.40;99.90;;;;;;5051785;28;20033;-55
2023/06/13 06:58:48;;;;;;;9.52;4.85;;;22.50;99.90;;;;;;5062128;28;20445;-55
2023/06/13 07:01:15;;;;;;;10.10;4.80;;;22.60;97.50;;;;;;5052343;28;20123;-55
2023/06/13 07:03:41;;;;;;;9.13;4.95;;;22.60;98.00;;;;;;5050157;28;20063;-55
2023/06/13 07:06:07;;;;;;;7.72;5.13;;;22.60;99.90;;;;;;5052659;28;20037;-55
2023/06/13 07:08:32;;;;;;;9.60;5.72;;;22.70;99.80;;;;;;5060446;28;20498;-57
2023/06/13 07:10:58;;;;;;;9.63;5.85;;;22.70;96.30;;;;;;5056502;28;20106;-55
2023/06/13 07:13:26;;;;;;;11.43;5.93;;;22.50;96.70;;;;;;5058656;28;20112;-55
2023/06/13 07:15:51;;;;;;;9.68;5.43;;;22.60;96.10;;;;;;5060473;28;20040;-55
2023/06/13 07:18:17;;;;;;;9.75;5.28;;;22.80;94.60;;;;;;5058726;28;20032;-55
2023/06/13 07:20:44;;;;;;;12.40;6.25;;;22.90;97.10;;;;;;5059849;28;20052;-55
2023/06/13 07:23:10;;;;;;;10.20;5.28;;;22.90;97.50;;;;;;5055418;28;20041;-55
2023/06/13 07:25:35;;;;;;;10.27;5.60;;;22.90;95.50;;;;;;5056958;28;20979;-55
2023/06/13 07:28:01;;;;;;;13.82;6.07;;;23.00;95.80;;;;;;5055977;28;20468;-55
2023/06/13 07:30:27;;;;;;;9.20;4.72;;;23.20;95.90;;;;;;5055671;28;20033;-55
2023/06/13 07:32:52;;;;;;;8.73;5.00;;;23.30;94.50;;;;;;5052209;28;20086;-55
2023/06/13 07:35:23;;;;;;;10.90;5.05;;;23.40;94.90;;;;;;5055522;28;20578;-55
2023/06/13 07:37:55;;;;;;;10.70;5.20;;;23.30;94.90;;;;;;5061214;28;20384;-55
2023/06/13 07:40:21;;;;;;;9.93;5.28;;;23.20;93.20;;;;;;5059289;28;20040;-55
2023/06/13 07:42:50;;;;;;;8.27;4.40;;;23.30;93.60;;;;;;5058626;28;20059;-55
2023/06/13 07:45:16;;;;;;;11.65;5.45;;;23.50;91.90;;;;;;5058505;28;20033;-55
2023/06/13 07:47:42;;;;;;;10.43;5.10;;;23.50;91.40;;;;;;5061410;28;20533;-55
2023/06/13 07:50:08;;;;;;;10.02;5.03;;;23.70;93.40;;;;;;5058337;28;20044;-55
2023/06/13 07:52:34;;;;;;;9.88;4.60;;;23.70;92.50;;;;;;5057994;28;20090;-55
2023/06/13 07:55:00;;;;;;;9.07;5.18;;;23.80;86.90;;;;;;5060079;28;20366;-55
2023/06/13 07:57:25;;;;;;;5.72;4.30;;;23.80;90.80;;;;;;5050134;28;20036;-55
2023/06/13 07:59:51;;;;;;;7.65;4.85;;;23.90;90.40;;;;;;5049397;28;20685;-55
2023/06/13 08:02:16;;;;;;;7.25;4.88;;;24.10;91.40;;;;;;5053072;28;20047;-55
2023/06/13 08:04:42;;;;;;;9.07;4.78;;;24.00;91.10;;;;;;5054327;28;20039;-55
2023/06/13 08:07:09;;;;;;;7.28;5.07;;;24.00;91.90;;;;;;5055184;28;20440;-55
2023/06/13 08:09:34;;;;;;;11.02;5.72;;;24.10;91.10;;;;;;5056582;28;20124;-54
2023/06/13 08:12:00;;;;;;;12.10;5.50;;;24.10;88.20;;;;;;5061381;28;20116;-55
2023/06/13 08:14:25;;;;;;;9.27;4.70;;;24.10;87.80;;;;;;5057246;28;20039;-55
2023/06/13 08:16:51;;;;;;;9.52;4.68;;;24.20;86.80;;;;;;5050826;28;20044;-55
2023/06/13 08:19:17;;;;;;;6.25;4.63;;;24.40;89.80;;;;;;5049770;28;20421;-55
2023/06/13 08:21:43;;;;;;;7.43;4.30;;;24.50;86.50;;;;;;5055570;28;20143;-55
2023/06/13 08:24:08;;;;;;;9.98;4.78;;;24.50;84.10;;;;;;5056630;28;20041;-55
2023/06/13 08:26:34;;;;;;;8.15;4.53;;;24.50;85.10;;;;;;5058330;28;20418;-55
2023/06/13 08:29:01;;;;;;;7.32;4.65;;;24.60;89.00;;;;;;5054424;28;20029;-55
2023/06/13 08:31:27;;;;;;;8.43;4.38;;;24.70;84.60;;;;;;5068754;28;20526;-55
2023/06/13 08:34:00;;;;;;;8.50;4.38;;;24.70;88.20;;;;;;5101770;27;20746;-54
2023/06/13 08:36:26;;;;;;;7.65;4.22;;;24.90;83.70;;;;;;5079658;27;20036;-55
2023/06/13 08:38:53;;;;;;;7.32;4.80;;;24.80;78.20;;;;;;5080708;28;20036;-55
2023/06/13 08:41:20;;;;;;;9.02;4.45;;;24.80;78.60;;;;;;5074978;27;20058;-54
2023/06/13 08:43:46;;;;;;;7.70;4.47;;;24.40;81.10;;;;;;5078447;27;20029;-54
2023/06/13 08:46:12;;;;;;;6.82;3.95;;;24.60;78.30;;;;;;5078970;27;20040;-55
2023/06/13 08:48:38;;;;;;;6.80;4.00;;;24.80;81.20;;;;;;5080975;27;20480;-54
2023/06/13 08:51:05;;;;;;;7.22;3.90;;;25.10;77.10;;;;;;5073775;27;20091;-54
2023/06/13 08:53:36;;;;;;;6.20;4.22;;;25.20;76.60;;;;;;5082140;27;20043;-55
2023/06/13 08:56:06;;;;;;;4.53;3.60;;;25.30;71.20;;;;;;5077849;27;20048;-55
2023/06/13 08:58:38;;;;;;;5.22;3.58;;;25.40;71.00;;;;;;5079417;27;20659;-55
2023/06/13 09:01:06;;;;;;;5.60;3.70;;;25.50;67.40;;;;;;5076223;27;20047;-54
2023/06/13 09:03:33;;;;;;;6.38;4.35;;;25.50;73.50;;;;;;5081932;27;20115;-54
2023/06/13 09:06:00;;;;;;;6.00;4.05;;;25.60;64.90;;;;;;5080179;27;20028;-55
2023/06/13 09:08:28;;;;;;;7.50;3.92;;;25.70;64.90;;;;;;5077410;27;20046;-55
2023/06/13 09:10:55;;;;;;;8.60;4.13;;;25.70;62.30;;;;;;5074940;27;20514;-55
2023/06/13 09:13:22;;;;;;;5.18;3.85;;;25.70;64.00;;;;;;5079979;27;20507;-55
2023/06/13 09:15:47;;;;;;;7.00;3.60;;;25.70;67.70;;;;;;5076026;27;20111;-55
2023/06/13 09:18:14;;;;;;;5.32;3.90;;;25.70;64.20;;;;;;5078301;27;20631;-55
2023/06/13 09:20:40;;;;;;;5.80;3.80;;;25.70;60.30;;;;;;5080251;27;20029;-54
2023/06/13 09:23:06;;;;;;;9.18;4.38;;;25.80;63.20;;;;;;5075524;27;20548;-54
2023/06/13 09:25:35;;;;;;;7.35;4.68;;;25.90;64.30;;;;;;5077299;27;20089;-54
2023/06/13 09:28:27;;;;;;;7.22;4.38;;;25.50;66.40;;;;;;5079037;27;20037;-54
2023/06/13 09:30:52;;;;;;;6.47;4.40;;;25.40;65.30;;;;;;5076415;27;20029;-54
2023/06/13 09:33:21;;;;;;;7.43;4.30;;;25.50;66.90;;;;;;5078223;27;20048;-55
2023/06/13 09:35:47;;;;;;;6.68;4.35;;;25.60;61.00;;;;;;5079923;27;20387;-55
2023/06/13 09:38:13;;;;;;;8.90;4.28;;;25.80;61.10;;;;;;5078077;27;20037;-55
2023/06/13 09:40:44;;;;;;;10.73;4.00;;;25.70;62.00;;;;;;5078594;27;20033;-54
2023/06/13 09:43:10;;;;;;;5.88;4.28;;;25.60;59.90;;;;;;5075600;27;20044;-54
2023/06/13 09:45:36;;;;;;;7.57;4.65;;;25.60;59.80;;;;;;5064955;28;20093;-55
2023/06/13 09:48:02;;;;;;;7.65;4.60;;;25.50;62.20;;;;;;5065935;28;20056;-55
2023/06/13 09:50:30;;;;;;;6.20;3.83;;;25.70;61.60;;;;;;5061456;28;20055;-54
2023/06/13 09:52:55;;;;;;;8.55;4.32;;;25.70;60.20;;;;;;5061308;28;21387;-54
2023/06/13 09:55:21;;;;;;;6.03;4.03;;;25.60;57.30;;;;;;5059823;28;20366;-55
2023/06/13 09:57:51;;;;;;;7.03;4.50;;;25.40;56.40;;;;;;5062893;28;20376;-55
2023/06/13 10:00:17;;;;;;;8.13;4.20;;;25.70;58.40;;;;;;5063431;28;20410;-54
2023/06/13 10:02:46;;;;;;;8.55;3.72;;;25.50;59.30;;;;;;5062439;28;20032;-54
2023/06/13 10:05:15;;;;;;;5.60;3.80;;;25.40;56.30;;;;;;5061400;28;20044;-51
2023/06/13 10:07:40;;;;;;;5.43;3.63;;;25.40;59.90;;;;;;5066729;28;20067;-54
2023/06/13 10:10:07;;;;;;;6.97;3.92;;;25.70;58.40;;;;;;5057290;28;20141;-55
2023/06/13 10:12:44;;;;;;;9.07;4.47;;;25.70;55.70;;;;;;5062345;28;20034;-56
2023/06/13 10:15:14;;;;;;;5.03;3.90;;;25.90;55.20;;;;;;5058231;28;20170;-54
2023/06/13 10:17:42;;;;;;;6.45;4.22;;;26.00;55.20;;;;;;5058844;28;20033;-54
2023/06/13 10:20:11;;;;;;;6.45;4.20;;;26.00;55.10;;;;;;5060014;28;20493;-54
2023/06/13 10:22:39;;;;;;;8.70;4.18;;;26.10;57.20;;;;;;5059775;28;20075;-56
2023/06/13 10:25:07;;;;;;;6.80;4.60;;;25.80;52.20;;;;;;5062395;28;20036;-58
2023/06/13 10:27:36;;;;;;;6.43;4.10;;;25.90;54.60;;;;;;5061892;28;20040;-58
2023/06/13 10:30:24;;;;;;;9.73;4.30;;;26.20;56.10;;;;;;5061748;28;20051;-59
2023/06/13 10:32:50;;;;;;;8.00;4.22;;;26.20;51.70;;;;;;5063267;28;20041;-59
2023/06/13 10:35:35;;;;;;;9.63;4.13;;;26.30;52.80;;;;;;5060374;28;20029;-58
2023/06/13 10:38:33;;;;;;;8.68;4.30;;;26.30;53.40;;;;;;5060620;28;20029;-58
2023/06/13 10:41:29;;;;;;;7.55;4.50;;;26.10;53.90;;;;;;5062816;28;20078;-57
2023/06/13 10:44:04;;;;;;;5.63;3.88;;;26.30;55.00;;;;;;5061292;28;20029;-57
2023/06/13 10:46:32;;;;;;;6.30;3.80;;;25.60;51.90;;;;;;5059824;28;20119;-57
2023/06/13 10:49:00;;;;;;;5.63;3.88;;;25.60;53.80;;;;;;5079067;28;20044;-58
2023/06/13 10:51:27;;;;;;;5.68;4.00;;;25.90;54.50;;;;;;5060339;28;20025;-58
2023/06/13 10:54:02;;;;;;;6.22;4.10;;;26.00;53.20;;;;;;5060058;28;20037;-58
2023/06/13 10:56:32;;;;;;;8.23;4.65;;;26.30;51.10;;;;;;5057306;28;20037;-58
2023/06/13 10:59:22;;;;;;;8.38;4.22;;;26.20;51.70;;;;;;5063071;28;20090;-58
2023/06/13 11:01:50;;;;;;;8.48;4.53;;;26.40;52.50;;;;;;5063565;28;20059;-58
2023/06/13 11:04:19;;;;;;;9.48;4.40;;;26.50;54.30;;;;;;5064652;28;20043;-58
2023/06/13 11:06:49;;;;;;;7.68;4.38;;;26.50;53.00;;;;;;5060642;28;20049;-58
2023/06/13 11:09:23;;;;;;;6.43;4.13;;;26.50;52.20;;;;;;5058732;28;20038;-58
2023/06/13 11:11:54;;;;;;;6.90;4.57;;;26.50;52.90;;;;;;5061019;28;20037;-58
2023/06/13 11:14:36;;;;;;;8.18;4.35;;;26.50;52.20;;;;;;5061908;28;20114;-58
2023/06/13 11:17:02;;;;;;;6.40;4.03;;;26.50;52.10;;;;;;5060626;28;20028;-58
2023/06/13 11:19:28;;;;;;;5.93;4.30;;;26.60;51.70;;;;;;5063118;28;20036;-58
2023/06/13 11:22:00;;;;;;;8.48;4.75;;;26.70;53.80;;;;;;5067417;28;20047;-58
2023/06/13 11:24:34;;;;;;;8.35;4.32;;;26.70;51.30;;;;;;5061326;28;20074;-58
2023/06/13 11:27:00;;;;;;;8.90;4.90;;;26.70;53.20;;;;;;5064165;28;20098;-58
2023/06/13 11:29:29;;;;;;;7.88;4.60;;;26.80;53.50;;;;;;5060652;28;20557;-57
2023/06/13 11:31:55;;;;;;;7.72;4.55;;;26.80;51.20;;;;;;5063049;28;20508;-57
2023/06/13 11:34:41;;;;;;;5.97;4.78;;;26.70;50.40;;;;;;5062776;28;20040;-58
2023/06/13 11:37:25;;;;;;;9.50;4.28;;;26.60;52.00;;;;;;5059284;28;20380;-58
2023/06/13 11:39:55;;;;;;;6.50;4.55;;;26.40;50.10;;;;;;5060205;28;20143;-58
2023/06/13 11:42:22;;;;;;;7.20;4.10;;;26.50;51.90;;;;;;5060358;28;20063;-58
2023/06/13 11:44:47;;;;;;;6.25;4.47;;;26.40;51.10;;;;;;5064939;28;20042;-57
2023/06/13 11:47:13;;;;;;;8.35;4.70;;;26.40;52.80;;;;;;5061788;28;20048;-58
2023/06/13 11:49:39;;;;;;;7.15;4.50;;;26.50;51.30;;;;;;5059752;28;20121;-58
2023/06/13 11:52:14;;;;;;;10.88;4.38;;;26.50;51.90;;;;;;5062888;28;20036;-57
2023/06/13 11:54:46;;;;;;;10.10;4.63;;;26.70;50.90;;;;;;5059402;28;20020;-58
2023/06/13 11:57:13;;;;;;;8.07;4.38;;;26.60;49.30;;;;;;5058165;28;20100;-58
2023/06/13 11:59:39;;;;;;;6.05;4.65;;;26.20;48.00;;;;;;5052616;28;20032;-58
2023/06/13 12:02:05;;;;;;;7.82;5.85;;;26.20;48.50;;;;;;5052748;28;20045;-58
2023/06/13 12:04:31;;;;;;;8.32;4.28;;;26.20;50.80;;;;;;5056649;28;20036;-58
2023/06/13 12:06:57;;;;;;;5.72;4.57;;;26.40;50.20;;;;;;5058619;28;20029;-58
2023/06/13 12:09:25;;;;;;;6.88;4.80;;;26.50;50.10;;;;;;5061568;28;20036;-59
2023/06/13 12:11:51;;;;;;;7.50;4.78;;;26.60;50.60;;;;;;5066325;28;20036;-59
2023/06/13 12:14:20;;;;;;;8.35;4.40;;;26.70;49.60;;;;;;5060880;28;20040;-59
2023/06/13 12:16:49;;;;;;;7.43;4.57;;;26.70;51.10;;;;;;5055209;28;20523;-58
2023/06/13 12:19:20;;;;;;;8.00;4.85;;;26.80;51.10;;;;;;5051886;28;20516;-58
2023/06/13 12:21:46;;;;;;;7.72;4.80;;;26.80;50.70;;;;;;5056579;28;20058;-59
2023/06/13 12:24:12;;;;;;;7.13;5.22;;;26.80;49.50;;;;;;5059601;28;20033;-58
2023/06/13 12:26:43;;;;;;;8.20;4.82;;;26.90;51.50;;;;;;5060756;28;20407;-58
2023/06/13 12:29:11;;;;;;;6.53;5.03;;;26.90;49.20;;;;;;5052804;28;20520;-58
2023/06/13 12:31:44;;;;;;;7.50;4.70;;;26.70;48.80;;;;;;5052293;28;20038;-58
2023/06/13 12:34:29;;;;;;;7.22;5.07;;;26.30;49.80;;;;;;5059085;28;20047;-58
2023/06/13 12:37:06;;;;;;;11.85;5.35;;;26.50;49.00;;;;;;5064247;28;20526;-59
2023/06/13 12:39:33;;;;;;;8.50;4.65;;;26.60;51.20;;;;;;5067058;28;20074;-58
2023/06/13 12:42:05;;;;;;;6.78;4.60;;;26.70;50.80;;;;;;5059118;28;20098;-59
2023/06/13 12:44:33;;;;;;;6.38;4.65;;;26.70;51.00;;;;;;5071038;28;20037;-58
2023/06/13 12:47:03;;;;;;;6.63;4.30;;;26.50;49.70;;;;;;5063910;28;20060;-58
2023/06/13 12:49:39;;;;;;;5.20;4.10;;;26.50;50.00;;;;;;5054717;28;20057;-58